Time;durP1;ratioP1;P1;durP2;ratioP2;P2;SDS_P1;SDS_P2;PMS_P1;PMS_P2;Temp;Humidity;BMP_temperature;BMP_pressure;BME280_temperature;BME280_humidity;BME280_pressure;Samples;Min_cycle;Max_cycle;Signal;HPM_P1;HPM_P2
2023/03/11 00:01:15;;;;;;;3.07;0.50;;;3.70;99.90;;;;;;5030726;28;20219;-67
2023/03/11 00:03:40;;;;;;;2.40;0.70;;;3.70;99.90;;;;;;5019019;28;20284;-66
2023/03/11 00:06:06;;;;;;;7.10;1.07;;;3.70;99.90;;;;;;5046474;28;20283;-66
2023/03/11 00:08:32;;;;;;;1.30;0.63;;;3.30;99.90;;;;;;5031250;28;20353;-66
2023/03/11 00:10:59;;;;;;;1.10;0.80;;;3.40;99.90;;;;;;5041152;28;20299;-67
2023/03/11 00:13:26;;;;;;;0.40;0.40;;;3.30;99.90;;;;;;5030810;28;20226;-67
2023/03/11 00:15:58;;;;;;;1.37;0.70;;;3.40;99.90;;;;;;5030660;28;20579;-67
2023/03/11 00:18:26;;;;;;;0.53;0.53;;;3.30;99.90;;;;;;5030583;28;20465;-67
2023/03/11 00:20:54;;;;;;;0.60;0.53;;;3.20;99.90;;;;;;5019614;28;20458;-67
2023/03/11 00:23:19;;;;;;;0.40;0.40;;;3.20;99.90;;;;;;5030699;28;20993;-67
2023/03/11 00:25:46;;;;;;;0.50;0.50;;;3.00;99.90;;;;;;5046073;28;20464;-68
2023/03/11 00:28:13;;;;;;;0.50;0.50;;;2.90;99.90;;;;;;5014494;28;20218;-67
2023/03/11 00:30:41;;;;;;;0.83;0.57;;;2.90;99.90;;;;;;5017697;28;20452;-68
2023/03/11 00:33:07;;;;;;;0.70;0.57;;;2.70;99.90;;;;;;5012307;28;20515;-67
2023/03/11 00:35:34;;;;;;;0.40;0.40;;;2.70;99.90;;;;;;5030942;28;20469;-66
2023/03/11 00:38:05;;;;;;;0.80;0.67;;;2.70;99.90;;;;;;5030692;28;20485;-67
2023/03/11 00:40:34;;;;;;;0.60;0.60;;;2.50;99.90;;;;;;5014662;28;20506;-67
2023/03/11 00:43:02;;;;;;;1.53;0.70;;;2.50;99.90;;;;;;5014779;28;20532;-68
2023/03/11 00:45:28;;;;;;;0.60;0.60;;;2.60;99.90;;;;;;5031216;28;20503;-68
2023/03/11 00:47:54;;;;;;;0.97;0.60;;;2.60;99.90;;;;;;5018798;28;20453;-66
2023/03/11 00:50:29;;;;;;;0.50;0.40;;;2.60;99.90;;;;;;5031584;28;20461;-65
2023/03/11 00:52:55;;;;;;;0.73;0.60;;;2.50;99.90;;;;;;5014218;28;20452;-66
2023/03/11 00:55:24;;;;;;;0.57;0.47;;;2.70;99.90;;;;;;5049131;28;20453;-66
2023/03/11 00:57:55;;;;;;;0.60;0.60;;;2.60;99.90;;;;;;5029224;28;20211;-66
2023/03/11 01:00:23;;;;;;;1.03;0.60;;;2.60;99.90;;;;;;5031007;28;20496;-66
2023/03/11 01:02:50;;;;;;;2.63;0.67;;;2.70;99.90;;;;;;5029769;28;20465;-66
2023/03/11 01:05:19;;;;;;;0.60;0.60;;;2.70;99.90;;;;;;5044491;28;20470;-66
2023/03/11 01:07:45;;;;;;;0.53;0.53;;;2.80;99.90;;;;;;5027791;28;20448;-67
2023/03/11 01:10:11;;;;;;;0.40;0.40;;;2.60;99.90;;;;;;5015112;28;20540;-66
2023/03/11 01:12:37;;;;;;;0.60;0.60;;;2.40;99.90;;;;;;5030963;28;20227;-67
2023/03/11 01:15:03;;;;;;;2.50;0.83;;;2.60;99.90;;;;;;5025501;28;20550;-67
2023/03/11 01:17:29;;;;;;;2.10;1.03;;;2.60;99.90;;;;;;5012943;28;20222;-67
2023/03/11 01:19:55;;;;;;;0.67;0.67;;;2.60;99.90;;;;;;5030205;28;20454;-67
2023/03/11 01:22:21;;;;;;;1.20;0.80;;;2.60;99.90;;;;;;5010267;28;20309;-68
2023/03/11 01:24:46;;;;;;;3.50;0.63;;;2.50;99.90;;;;;;5013254;28;20239;-67
2023/03/11 01:27:12;;;;;;;2.87;0.90;;;2.50;99.90;;;;;;5026016;28;20822;-66
2023/03/11 01:29:37;;;;;;;0.60;0.50;;;2.50;99.90;;;;;;5014288;28;20211;-68
2023/03/11 01:32:04;;;;;;;1.00;0.60;;;2.70;99.90;;;;;;5028460;28;20700;-69
2023/03/11 01:34:29;;;;;;;3.07;0.53;;;2.80;99.90;;;;;;5029668;28;20218;-68
2023/03/11 01:36:57;;;;;;;1.03;0.63;;;2.80;99.90;;;;;;5014085;28;20464;-66
2023/03/11 01:39:23;;;;;;;0.50;0.40;;;3.00;99.90;;;;;;5030175;28;20458;-68
2023/03/11 01:41:48;;;;;;;1.33;0.77;;;3.00;99.90;;;;;;5046497;28;20238;-67
2023/03/11 01:44:14;;;;;;;0.53;0.53;;;2.80;99.90;;;;;;5016572;28;20241;-68
2023/03/11 01:46:53;;;;;;;0.70;0.70;;;2.70;99.90;;;;;;5050272;28;20464;-66
2023/03/11 01:49:23;;;;;;;4.57;1.07;;;2.60;99.90;;;;;;5034008;28;20556;-69
2023/03/11 01:52:02;;;;;;;2.40;1.63;;;2.50;99.90;;;;;;5033413;28;20553;-68
2023/03/11 01:54:34;;;;;;;1.40;0.97;;;2.50;99.90;;;;;;5032213;28;20234;-67
2023/03/11 01:57:03;;;;;;;1.27;0.90;;;2.60;99.90;;;;;;5019664;28;20448;-68
2023/03/11 01:59:34;;;;;;;1.07;0.67;;;2.60;99.90;;;;;;5033802;28;20461;-68
2023/03/11 02:02:07;;;;;;;2.57;0.73;;;2.60;99.90;;;;;;5033435;28;20484;-68
2023/03/11 02:04:35;;;;;;;0.80;0.80;;;2.40;99.90;;;;;;5033342;28;20461;-68
2023/03/11 02:07:03;;;;;;;0.83;0.80;;;2.50;99.90;;;;;;5032081;28;20481;-67
2023/03/11 02:09:29;;;;;;;3.00;0.83;;;2.50;99.90;;;;;;5016526;28;20459;-67
2023/03/11 02:11:56;;;;;;;0.90;0.80;;;2.60;99.90;;;;;;5033293;28;20526;-68
2023/03/11 02:14:24;;;;;;;6.13;0.93;;;2.80;99.90;;;;;;5033660;28;20502;-68
2023/03/11 02:16:52;;;;;;;1.40;0.93;;;2.80;99.90;;;;;;5021206;28;20449;-67
2023/03/11 02:19:23;;;;;;;2.50;0.70;;;2.80;99.90;;;;;;5033402;28;20461;-67
2023/03/11 02:21:50;;;;;;;0.70;0.70;;;2.70;99.90;;;;;;5050006;28;20986;-68
2023/03/11 02:24:22;;;;;;;1.90;0.93;;;2.60;99.90;;;;;;5017493;28;20470;-67
2023/03/11 02:27:15;;;;;;;3.07;0.97;;;2.60;99.90;;;;;;5014824;28;20466;-68
2023/03/11 02:29:42;;;;;;;0.60;0.60;;;2.60;99.90;;;;;;5023795;28;20450;-67
2023/03/11 02:32:09;;;;;;;1.03;0.80;;;2.50;99.90;;;;;;5006348;28;20471;-68
2023/03/11 02:34:39;;;;;;;4.70;0.73;;;2.60;99.90;;;;;;5027965;28;20446;-68
2023/03/11 02:37:07;;;;;;;1.67;0.87;;;2.70;99.90;;;;;;5045735;28;20819;-69
2023/03/11 02:39:37;;;;;;;1.80;1.07;;;2.60;99.90;;;;;;5016803;28;20432;-68
2023/03/11 02:42:14;;;;;;;1.70;1.00;;;2.60;99.90;;;;;;5033700;28;20495;-68
2023/03/11 02:44:44;;;;;;;2.67;0.90;;;2.70;99.90;;;;;;5015865;28;20482;-67
2023/03/11 02:47:10;;;;;;;0.73;0.70;;;2.60;99.90;;;;;;5033729;28;20936;-69
2023/03/11 02:49:36;;;;;;;1.23;1.10;;;2.60;99.90;;;;;;5003337;28;20468;-65
2023/03/11 02:52:02;;;;;;;2.37;1.00;;;2.60;99.90;;;;;;5030388;28;20474;-68
2023/03/11 02:54:28;;;;;;;1.33;0.90;;;2.60;99.90;;;;;;5027403;28;20558;-66
2023/03/11 02:56:55;;;;;;;1.27;0.87;;;2.60;99.90;;;;;;5029676;28;20522;-68
2023/03/11 02:59:21;;;;;;;4.77;0.90;;;2.70;99.90;;;;;;5009805;28;20465;-67
2023/03/11 03:01:47;;;;;;;1.97;0.70;;;2.70;99.90;;;;;;5033416;28;20230;-67
2023/03/11 03:04:13;;;;;;;0.80;0.80;;;2.50;99.90;;;;;;5031934;28;20485;-67
2023/03/11 03:06:39;;;;;;;1.00;0.70;;;2.40;99.90;;;;;;5048901;28;20456;-68
2023/03/11 03:09:05;;;;;;;0.60;0.50;;;2.40;99.90;;;;;;5046386;28;20229;-68
2023/03/11 03:11:31;;;;;;;1.83;0.90;;;2.50;99.90;;;;;;5041400;28;20330;-67
2023/03/11 03:13:57;;;;;;;2.10;0.80;;;2.60;99.90;;;;;;5021740;28;20906;-67
2023/03/11 03:16:23;;;;;;;2.47;1.10;;;2.40;99.90;;;;;;5050416;28;20472;-67
2023/03/11 03:18:49;;;;;;;1.63;0.90;;;2.40;99.90;;;;;;5014636;28;20468;-67
2023/03/11 03:21:14;;;;;;;7.10;1.37;;;2.50;99.90;;;;;;5028438;28;20224;-66
2023/03/11 03:23:40;;;;;;;6.27;0.93;;;2.60;99.90;;;;;;5032835;28;20308;-67
2023/03/11 03:26:06;;;;;;;4.83;0.90;;;2.60;99.90;;;;;;5030629;28;20220;-68
2023/03/11 03:28:35;;;;;;;2.03;1.10;;;2.70;99.90;;;;;;5029069;28;20277;-65
2023/03/11 03:31:06;;;;;;;0.53;0.53;;;2.80;99.90;;;;;;5016106;28;20533;-68
2023/03/11 03:33:32;;;;;;;1.40;1.30;;;2.70;99.90;;;;;;5030919;28;20460;-67
2023/03/11 03:35:57;;;;;;;2.00;1.00;;;2.80;99.90;;;;;;5032594;28;20465;-67
2023/03/11 03:38:27;;;;;;;0.97;0.97;;;2.90;99.90;;;;;;5044880;28;20578;-67
2023/03/11 03:40:53;;;;;;;1.70;1.03;;;3.10;99.90;;;;;;5012755;28;20512;-68
2023/03/11 03:43:20;;;;;;;7.90;1.17;;;3.10;99.90;;;;;;5013763;28;20219;-68
2023/03/11 03:45:58;;;;;;;0.97;0.63;;;3.00;99.90;;;;;;5015795;28;20449;-68
2023/03/11 03:48:26;;;;;;;0.83;0.70;;;3.10;99.90;;;;;;5029709;28;20464;-68
2023/03/11 03:50:52;;;;;;;0.80;0.80;;;3.10;99.90;;;;;;4997458;28;20481;-67
2023/03/11 03:53:18;;;;;;;4.13;1.03;;;3.20;99.90;;;;;;5035291;28;20216;-68
2023/03/11 03:55:44;;;;;;;1.33;0.90;;;3.20;99.90;;;;;;5004657;28;20754;-68
2023/03/11 03:58:10;;;;;;;0.90;0.50;;;3.30;99.90;;;;;;5011859;28;20472;-68
2023/03/11 04:00:36;;;;;;;1.87;0.83;;;3.20;99.90;;;;;;5032243;28;20444;-68
2023/03/11 04:03:02;;;;;;;0.90;0.70;;;3.20;99.90;;;;;;5016913;28;20688;-68
2023/03/11 04:05:43;;;;;;;0.93;0.73;;;3.30;99.90;;;;;;5001264;28;20230;-68
2023/03/11 04:08:11;;;;;;;1.37;0.90;;;3.20;99.90;;;;;;5022106;28;20458;-67
2023/03/11 04:10:36;;;;;;;3.23;1.27;;;3.20;99.90;;;;;;5031857;28;20450;-68
2023/03/11 04:13:03;;;;;;;0.70;0.63;;;3.10;99.90;;;;;;5015182;28;20457;-68
2023/03/11 04:15:28;;;;;;;2.03;0.97;;;3.10;99.90;;;;;;5014717;28;20468;-67
2023/03/11 04:17:54;;;;;;;0.83;0.83;;;3.10;99.90;;;;;;5031130;28;20215;-67
2023/03/11 04:20:20;;;;;;;1.90;0.90;;;3.00;99.90;;;;;;5031574;28;20277;-68
2023/03/11 04:22:48;;;;;;;2.60;1.00;;;3.00;99.90;;;;;;5029725;28;20457;-68
2023/03/11 04:25:15;;;;;;;7.63;1.27;;;3.00;99.90;;;;;;5021387;28;20469;-68
2023/03/11 04:27:44;;;;;;;2.30;0.60;;;3.10;99.90;;;;;;5029646;28;20545;-67
2023/03/11 04:30:11;;;;;;;0.70;0.70;;;3.10;99.90;;;;;;5045432;28;20464;-68
2023/03/11 04:32:37;;;;;;;2.20;1.00;;;3.20;99.90;;;;;;5015431;28;20462;-67
2023/03/11 04:35:04;;;;;;;2.83;1.17;;;3.20;99.90;;;;;;5014953;28;20480;-69
2023/03/11 04:37:30;;;;;;;5.10;1.50;;;3.00;99.90;;;;;;5024206;28;20455;-68
2023/03/11 04:39:56;;;;;;;1.03;0.93;;;2.80;99.90;;;;;;5017171;28;21010;-68
2023/03/11 04:42:22;;;;;;;3.40;0.70;;;2.90;99.90;;;;;;5025812;28;20553;-68
2023/03/11 04:44:48;;;;;;;5.83;0.90;;;3.00;99.90;;;;;;5025078;28;20501;-67
2023/03/11 04:47:14;;;;;;;2.20;1.00;;;3.00;99.90;;;;;;5014003;28;20505;-68
2023/03/11 04:49:40;;;;;;;7.73;1.20;;;3.10;99.90;;;;;;5027957;28;20215;-67
2023/03/11 04:52:06;;;;;;;4.03;1.30;;;3.00;99.90;;;;;;5031960;28;20301;-68
2023/03/11 04:54:31;;;;;;;1.00;0.80;;;2.90;99.90;;;;;;5009517;28;20568;-68
2023/03/11 04:56:57;;;;;;;3.57;1.30;;;2.90;99.90;;;;;;5045307;28;20292;-67
2023/03/11 04:59:23;;;;;;;0.80;0.80;;;3.00;99.90;;;;;;5053582;28;20243;-68
2023/03/11 05:01:50;;;;;;;6.40;0.97;;;3.00;99.90;;;;;;5014018;28;21010;-68
2023/03/11 05:04:16;;;;;;;1.23;0.70;;;3.10;99.90;;;;;;5030366;28;20509;-68
2023/03/11 05:06:42;;;;;;;3.00;0.87;;;3.20;99.90;;;;;;5047361;28;20306;-67
2023/03/11 05:09:08;;;;;;;1.63;1.17;;;3.10;99.90;;;;;;5014866;28;20696;-68
2023/03/11 05:11:36;;;;;;;2.50;1.17;;;3.10;99.90;;;;;;5022522;28;20561;-68
2023/03/11 05:14:02;;;;;;;1.33;1.20;;;3.10;99.90;;;;;;4997016;28;20550;-67
2023/03/11 05:16:28;;;;;;;1.20;0.70;;;2.90;99.90;;;;;;5026833;28;20313;-67
2023/03/11 05:18:55;;;;;;;0.90;0.80;;;2.90;99.90;;;;;;5023054;28;20919;-68
2023/03/11 05:21:21;;;;;;;1.13;1.00;;;2.90;99.90;;;;;;4997510;28;20455;-68
2023/03/11 05:23:47;;;;;;;1.00;0.63;;;2.80;99.90;;;;;;4998055;28;20493;-68
2023/03/11 05:26:13;;;;;;;1.37;1.20;;;2.80;99.90;;;;;;5030488;28;20270;-67
2023/03/11 05:28:41;;;;;;;3.03;0.97;;;3.00;99.90;;;;;;5011745;28;20453;-67
2023/03/11 05:31:09;;;;;;;1.40;1.30;;;3.00;99.90;;;;;;5030603;28;20595;-67
2023/03/11 05:33:36;;;;;;;0.87;0.70;;;3.10;99.90;;;;;;5030772;28;20272;-67
2023/03/11 05:36:08;;;;;;;6.00;1.13;;;3.00;99.90;;;;;;5027368;28;20453;-66
2023/03/11 05:38:35;;;;;;;3.80;0.93;;;2.90;99.90;;;;;;5029112;28;20457;-65
2023/03/11 05:41:01;;;;;;;1.77;0.93;;;2.50;99.90;;;;;;5014245;28;20453;-66
2023/03/11 05:43:27;;;;;;;1.20;0.90;;;2.50;99.90;;;;;;5012259;28;20474;-68
2023/03/11 05:45:53;;;;;;;2.03;0.70;;;2.50;99.90;;;;;;5029060;28;20490;-67
2023/03/11 05:48:19;;;;;;;0.73;0.73;;;2.20;99.90;;;;;;5029252;28;20519;-69
2023/03/11 05:50:45;;;;;;;1.13;0.83;;;2.30;99.90;;;;;;5027118;28;20267;-68
2023/03/11 05:53:10;;;;;;;4.67;1.03;;;2.40;99.90;;;;;;5010201;28;20220;-68
2023/03/11 05:55:36;;;;;;;1.17;0.80;;;2.30;99.90;;;;;;5010173;28;20232;-68
2023/03/11 05:58:02;;;;;;;1.27;1.07;;;2.30;99.90;;;;;;5028025;28;20211;-68
2023/03/11 06:00:28;;;;;;;3.80;1.23;;;2.20;99.90;;;;;;5011822;28;20462;-68
2023/03/11 06:02:55;;;;;;;5.00;1.17;;;2.20;99.90;;;;;;5003983;28;20219;-69
2023/03/11 06:05:21;;;;;;;2.83;1.07;;;2.10;99.90;;;;;;5022497;28;20478;-68
2023/03/11 06:07:49;;;;;;;1.67;1.10;;;1.90;99.90;;;;;;5029082;28;20225;-69
2023/03/11 06:10:15;;;;;;;1.17;1.07;;;2.00;99.90;;;;;;5020340;28;20541;-67
2023/03/11 06:12:41;;;;;;;3.63;1.70;;;1.90;99.90;;;;;;5013800;28;20457;-69
2023/03/11 06:15:12;;;;;;;0.70;0.60;;;1.80;99.90;;;;;;5011209;28;20482;-69
2023/03/11 06:17:39;;;;;;;1.37;0.93;;;1.90;99.90;;;;;;5029348;28;20461;-69
2023/03/11 06:20:06;;;;;;;1.37;1.00;;;2.00;99.90;;;;;;5020259;28;20456;-68
2023/03/11 06:22:32;;;;;;;2.53;0.80;;;2.10;99.90;;;;;;5022119;28;20485;-67
2023/03/11 06:24:58;;;;;;;9.10;0.90;;;1.80;99.90;;;;;;5013777;28;20486;-67
2023/03/11 06:27:24;;;;;;;1.40;0.93;;;1.80;99.90;;;;;;5028480;28;20243;-68
2023/03/11 06:29:55;;;;;;;0.93;0.90;;;1.80;99.90;;;;;;5023751;28;20685;-68
2023/03/11 06:32:23;;;;;;;0.70;0.70;;;1.90;99.90;;;;;;5039620;28;20218;-68
2023/03/11 06:34:50;;;;;;;1.57;1.03;;;1.80;99.90;;;;;;5010400;28;20460;-68
2023/03/11 06:37:17;;;;;;;1.73;1.00;;;1.90;99.90;;;;;;5017190;28;20468;-68
2023/03/11 06:39:42;;;;;;;0.90;0.63;;;2.00;99.90;;;;;;5016498;28;20540;-68
2023/03/11 06:42:12;;;;;;;2.70;1.10;;;1.90;99.90;;;;;;5014889;28;20465;-68
2023/03/11 06:44:38;;;;;;;1.73;0.73;;;1.80;99.90;;;;;;5035084;28;20481;-68
2023/03/11 06:47:04;;;;;;;2.70;1.00;;;1.70;99.90;;;;;;5013164;28;20451;-69
2023/03/11 06:49:30;;;;;;;1.17;1.07;;;1.80;99.90;;;;;;5033284;28;20219;-68
2023/03/11 06:51:56;;;;;;;4.77;1.73;;;1.90;99.90;;;;;;5044674;28;20542;-68
2023/03/11 06:54:22;;;;;;;0.97;0.70;;;1.80;99.90;;;;;;5066171;28;20219;-68
2023/03/11 06:56:48;;;;;;;1.67;0.97;;;1.80;99.90;;;;;;5033039;28;20540;-67
2023/03/11 06:59:14;;;;;;;3.50;1.33;;;2.00;99.90;;;;;;5065738;28;20621;-67
2023/03/11 07:01:40;;;;;;;1.90;1.43;;;2.00;99.90;;;;;;5065966;28;20232;-68
2023/03/11 07:04:09;;;;;;;3.47;1.30;;;1.90;99.90;;;;;;5050320;28;20817;-68
2023/03/11 07:06:37;;;;;;;1.20;1.10;;;1.80;99.90;;;;;;5032454;28;20464;-67
2023/03/11 07:09:11;;;;;;;0.80;0.70;;;1.80;99.90;;;;;;5033424;28;20463;-68
2023/03/11 07:11:41;;;;;;;2.60;0.90;;;1.80;99.90;;;;;;5015470;28;20545;-67
2023/03/11 07:14:14;;;;;;;2.07;0.80;;;1.90;99.90;;;;;;5033089;28;20540;-68
2023/03/11 07:16:45;;;;;;;1.47;0.80;;;1.90;99.90;;;;;;5046325;28;20445;-67
2023/03/11 07:19:19;;;;;;;0.70;0.70;;;2.00;99.90;;;;;;5045671;28;20480;-68
2023/03/11 07:21:44;;;;;;;4.43;1.40;;;1.80;99.90;;;;;;5048175;28;20496;-67
2023/03/11 07:24:12;;;;;;;1.17;1.00;;;1.90;99.90;;;;;;5051663;28;20234;-68
2023/03/11 07:26:38;;;;;;;0.70;0.70;;;1.90;99.90;;;;;;5029540;28;20227;-68
2023/03/11 07:29:04;;;;;;;1.07;0.60;;;2.10;99.90;;;;;;5040856;28;20556;-68
2023/03/11 07:31:32;;;;;;;2.07;1.10;;;2.10;99.90;;;;;;5032862;28;20544;-68
2023/03/11 07:33:59;;;;;;;1.30;1.10;;;2.10;99.90;;;;;;5033197;28;20287;-68
2023/03/11 07:36:25;;;;;;;1.33;1.20;;;2.10;99.90;;;;;;5030590;28;20457;-67
2023/03/11 07:38:58;;;;;;;3.80;1.70;;;2.20;99.90;;;;;;5030764;28;20484;-68
2023/03/11 07:41:24;;;;;;;1.90;1.00;;;2.30;99.90;;;;;;5030954;28;20553;-67
2023/03/11 07:43:54;;;;;;;2.40;1.23;;;2.40;99.90;;;;;;5035750;28;20474;-68
2023/03/11 07:46:21;;;;;;;1.00;0.90;;;2.40;99.90;;;;;;5013711;28;20471;-68
2023/03/11 07:48:48;;;;;;;1.83;1.37;;;2.50;99.90;;;;;;5012408;28;20532;-68
2023/03/11 07:51:19;;;;;;;5.93;1.50;;;2.60;99.90;;;;;;5035755;28;20489;-68
2023/03/11 07:53:45;;;;;;;1.47;1.23;;;2.70;99.90;;;;;;5030035;28;20489;-68
2023/03/11 07:56:13;;;;;;;4.53;1.10;;;2.60;99.90;;;;;;5042212;28;20529;-68
2023/03/11 07:58:39;;;;;;;1.17;1.10;;;2.60;99.90;;;;;;5023122;28;20645;-68
2023/03/11 08:01:10;;;;;;;2.23;1.00;;;2.70;99.90;;;;;;5018786;28;20558;-69
2023/03/11 08:03:37;;;;;;;1.13;0.67;;;2.80;99.90;;;;;;5004233;28;20313;-68
2023/03/11 08:06:10;;;;;;;1.80;1.10;;;2.90;99.90;;;;;;5005658;28;20612;-68
2023/03/11 08:08:35;;;;;;;1.30;1.20;;;3.10;99.90;;;;;;5040387;28;20990;-67
2023/03/11 08:11:02;;;;;;;7.90;2.03;;;3.10;99.90;;;;;;5015391;28;20539;-68
2023/03/11 08:13:28;;;;;;;3.33;1.20;;;3.10;99.90;;;;;;5044470;28;20227;-68
2023/03/11 08:15:54;;;;;;;7.73;0.83;;;3.10;99.90;;;;;;5028224;28;20884;-68
2023/03/11 08:18:19;;;;;;;4.77;1.10;;;3.10;99.90;;;;;;5044641;28;20763;-68
2023/03/11 08:20:45;;;;;;;2.93;1.40;;;3.10;99.90;;;;;;5015259;28;20206;-68
2023/03/11 08:23:11;;;;;;;1.50;1.00;;;3.10;99.90;;;;;;5032279;28;20222;-68
2023/03/11 08:25:42;;;;;;;2.93;1.40;;;3.10;99.90;;;;;;5022811;28;20270;-68
2023/03/11 08:28:08;;;;;;;3.27;1.50;;;3.20;99.90;;;;;;5029085;28;20456;-69
2023/03/11 08:30:34;;;;;;;2.00;1.50;;;3.40;99.90;;;;;;5031290;28;20445;-67
2023/03/11 08:33:00;;;;;;;0.97;0.60;;;3.40;99.90;;;;;;5031770;28;20227;-69
2023/03/11 08:35:26;;;;;;;3.83;1.10;;;3.60;99.90;;;;;;5030902;28;20292;-69
2023/03/11 08:37:51;;;;;;;4.37;1.60;;;3.70;99.90;;;;;;5028706;28;20219;-68
2023/03/11 08:40:18;;;;;;;2.33;2.07;;;3.70;99.90;;;;;;5031131;28;20219;-69
2023/03/11 08:42:43;;;;;;;3.63;2.17;;;3.70;99.90;;;;;;5014778;28;20224;-67
2023/03/11 08:45:10;;;;;;;2.20;1.30;;;3.70;99.90;;;;;;5049004;28;20478;-69
2023/03/11 08:47:37;;;;;;;2.60;1.67;;;3.80;99.90;;;;;;5014160;28;20219;-67
2023/03/11 08:50:06;;;;;;;1.77;1.03;;;3.90;99.90;;;;;;5011484;28;20470;-69
2023/03/11 08:52:32;;;;;;;1.07;1.03;;;3.90;99.90;;;;;;5029389;28;20462;-69
2023/03/11 08:54:58;;;;;;;1.67;1.07;;;4.00;99.90;;;;;;5014874;28;21033;-69
2023/03/11 08:57:24;;;;;;;1.73;1.63;;;4.00;99.90;;;;;;5033162;28;20596;-69
2023/03/11 08:59:49;;;;;;;3.13;2.93;;;4.00;99.90;;;;;;5029485;28;20605;-69
2023/03/11 09:02:15;;;;;;;10.23;7.20;;;4.00;99.90;;;;;;5032528;28;20234;-68
2023/03/11 09:04:41;;;;;;;6.00;5.53;;;4.00;99.90;;;;;;5026362;28;20247;-68
2023/03/11 09:07:06;;;;;;;10.87;9.97;;;4.10;99.90;;;;;;5030337;28;20219;-70
2023/03/11 09:09:32;;;;;;;11.60;10.60;;;4.10;99.90;;;;;;5030673;28;20306;-69
2023/03/11 09:11:57;;;;;;;7.90;7.20;;;4.20;99.90;;;;;;5027771;28;20233;-69
2023/03/11 09:14:23;;;;;;;4.33;4.03;;;4.30;99.90;;;;;;5023188;28;20253;-69
2023/03/11 09:16:49;;;;;;;3.33;2.10;;;4.20;99.90;;;;;;5029554;28;20227;-70
2023/03/11 09:19:15;;;;;;;2.80;1.13;;;4.20;99.90;;;;;;5013318;28;20301;-67
2023/03/11 09:21:40;;;;;;;1.20;1.10;;;4.20;99.90;;;;;;5011079;28;20220;-69
2023/03/11 09:24:06;;;;;;;2.90;1.20;;;4.10;99.90;;;;;;5031196;28;20234;-69
2023/03/11 09:26:32;;;;;;;2.93;1.60;;;4.00;99.90;;;;;;5024832;28;20231;-68
2023/03/11 09:28:57;;;;;;;1.27;1.17;;;4.00;99.90;;;;;;5048095;28;20223;-69
2023/03/11 09:31:23;;;;;;;1.20;1.03;;;4.10;99.90;;;;;;5025816;28;20301;-69
2023/03/11 09:33:51;;;;;;;0.93;0.70;;;4.10;99.90;;;;;;5025962;28;20225;-67
2023/03/11 09:36:19;;;;;;;0.70;0.50;;;4.00;99.90;;;;;;5012071;28;20233;-68
2023/03/11 09:38:46;;;;;;;0.70;0.70;;;4.10;99.90;;;;;;5023561;28;21000;-67
2023/03/11 09:41:17;;;;;;;1.43;1.10;;;4.30;99.90;;;;;;5011379;28;20460;-69
2023/03/11 09:44:19;;;;;;;2.20;1.13;;;4.40;99.90;;;;;;5041816;28;20912;-67
2023/03/11 09:47:11;;;;;;;0.60;0.60;;;4.40;99.90;;;;;;5023029;28;20456;-69
2023/03/11 09:50:05;;;;;;;3.93;1.10;;;4.20;99.90;;;;;;5027763;28;20469;-68
2023/03/11 09:52:56;;;;;;;0.90;0.80;;;4.30;99.90;;;;;;5023690;28;20488;-66
2023/03/11 09:55:47;;;;;;;7.93;1.17;;;4.50;99.90;;;;;;5022712;28;20455;-66
2023/03/11 09:58:13;;;;;;;1.90;1.33;;;4.60;99.90;;;;;;5044496;28;20473;-67
2023/03/11 10:00:39;;;;;;;1.53;1.20;;;4.30;99.90;;;;;;5025655;28;20548;-68
2023/03/11 10:03:13;;;;;;;4.10;2.00;;;4.30;99.90;;;;;;5043311;28;20238;-70
2023/03/11 10:05:41;;;;;;;5.53;1.77;;;4.50;99.90;;;;;;5029437;28;20503;-68
2023/03/11 10:08:22;;;;;;;4.90;1.83;;;4.60;99.90;;;;;;5047486;28;20478;-68
2023/03/11 10:10:59;;;;;;;3.23;1.57;;;4.70;99.90;;;;;;5049128;28;20471;-69
2023/03/11 10:13:36;;;;;;;2.17;1.57;;;4.80;99.90;;;;;;5034534;28;20467;-68
2023/03/11 10:16:30;;;;;;;1.73;1.63;;;5.00;99.90;;;;;;5031385;28;20461;-69
2023/03/11 10:19:07;;;;;;;1.33;0.97;;;4.80;99.90;;;;;;5042132;28;20449;-69
2023/03/11 10:21:38;;;;;;;0.80;0.60;;;4.50;99.90;;;;;;5020510;28;20465;-68
2023/03/11 10:24:45;;;;;;;0.70;0.70;;;4.60;99.90;;;;;;5017632;28;20479;-69
2023/03/11 10:27:18;;;;;;;1.60;0.70;;;4.70;99.90;;;;;;5049844;28;20463;-69
2023/03/11 10:30:08;;;;;;;1.57;1.00;;;4.80;99.90;;;;;;5048780;28;20497;-69
2023/03/11 10:32:59;;;;;;;4.20;0.90;;;4.90;99.90;;;;;;5033845;28;20468;-70
2023/03/11 10:35:37;;;;;;;0.70;0.70;;;4.80;99.90;;;;;;5040342;28;20544;-69
2023/03/11 10:38:29;;;;;;;1.67;0.73;;;4.60;99.90;;;;;;5045645;28;20522;-69
2023/03/11 10:40:58;;;;;;;0.50;0.50;;;4.60;99.90;;;;;;5021546;28;20455;-68
2023/03/11 10:43:27;;;;;;;1.17;0.70;;;4.50;99.90;;;;;;4998538;28;20517;-69
2023/03/11 10:45:53;;;;;;;3.80;0.90;;;4.50;99.90;;;;;;5025589;28;20521;-69
2023/03/11 10:48:21;;;;;;;2.60;0.90;;;4.60;99.90;;;;;;5008102;28;20988;-70
2023/03/11 10:51:02;;;;;;;1.30;0.80;;;4.60;99.90;;;;;;5051243;28;20466;-69
2023/03/11 10:53:28;;;;;;;1.60;0.90;;;4.80;99.90;;;;;;5033329;28;20471;-68
2023/03/11 10:55:56;;;;;;;1.83;1.73;;;4.80;99.90;;;;;;5006334;28;20529;-69
2023/03/11 10:58:31;;;;;;;1.80;1.70;;;4.80;99.90;;;;;;5006531;28;20453;-69
2023/03/11 11:01:14;;;;;;;1.23;1.13;;;4.80;99.90;;;;;;4988302;28;20465;-69
2023/03/11 11:03:48;;;;;;;1.60;1.40;;;4.80;99.90;;;;;;5001555;28;20466;-68
2023/03/11 11:06:36;;;;;;;2.13;0.80;;;4.80;99.90;;;;;;5047445;28;20464;-69
2023/03/11 11:09:20;;;;;;;4.13;0.87;;;4.80;99.90;;;;;;5048709;28;21093;-68
2023/03/11 11:12:12;;;;;;;2.00;0.70;;;4.90;99.90;;;;;;5034511;28;20942;-69
2023/03/11 11:14:56;;;;;;;1.17;0.77;;;4.80;99.90;;;;;;5053405;28;20484;-70
2023/03/11 11:17:30;;;;;;;1.80;1.30;;;4.80;99.90;;;;;;5020334;28;20459;-68
2023/03/11 11:19:57;;;;;;;0.93;0.83;;;4.90;99.90;;;;;;5013656;28;20493;-69
2023/03/11 11:22:24;;;;;;;1.37;1.00;;;4.80;99.90;;;;;;5031522;28;20469;-69
2023/03/11 11:24:52;;;;;;;1.40;1.30;;;4.90;99.90;;;;;;5011470;28;20937;-70
2023/03/11 11:27:26;;;;;;;4.07;1.03;;;5.00;99.90;;;;;;5010249;28;20472;-69
2023/03/11 11:30:22;;;;;;;0.70;0.70;;;4.90;99.90;;;;;;5032486;28;20509;-69
2023/03/11 11:32:52;;;;;;;1.53;0.97;;;4.80;99.90;;;;;;5010296;28;21048;-69
2023/03/11 11:35:19;;;;;;;0.83;0.83;;;4.90;99.90;;;;;;5014975;28;20512;-69
2023/03/11 11:37:59;;;;;;;0.63;0.63;;;4.90;99.90;;;;;;5016184;28;20445;-69
2023/03/11 11:40:32;;;;;;;1.17;1.00;;;4.90;99.90;;;;;;5048716;28;20510;-68
2023/03/11 11:43:04;;;;;;;3.30;0.93;;;5.00;99.90;;;;;;5031719;28;20545;-68
2023/03/11 11:45:37;;;;;;;2.63;1.00;;;5.00;99.90;;;;;;5046216;28;20556;-70
2023/03/11 11:48:18;;;;;;;0.90;0.80;;;5.00;99.90;;;;;;5032075;28;20527;-69
2023/03/11 11:50:54;;;;;;;5.33;1.03;;;4.90;99.90;;;;;;5004299;28;20469;-69
2023/03/11 11:53:38;;;;;;;4.70;1.30;;;4.90;99.90;;;;;;5012520;28;20536;-70
2023/03/11 11:56:04;;;;;;;2.70;0.93;;;5.00;99.90;;;;;;5037669;28;20464;-70
2023/03/11 11:58:30;;;;;;;3.27;2.13;;;5.10;99.90;;;;;;5020624;28;20473;-68
2023/03/11 12:01:18;;;;;;;1.77;1.67;;;5.10;99.90;;;;;;5049834;28;20235;-69
2023/03/11 12:03:51;;;;;;;5.90;2.00;;;5.10;99.90;;;;;;5030426;28;20460;-70
2023/03/11 12:06:37;;;;;;;1.63;1.53;;;5.10;99.90;;;;;;5028627;28;20453;-70
2023/03/11 12:09:30;;;;;;;1.37;1.07;;;5.10;99.90;;;;;;5035118;28;20461;-70
2023/03/11 12:12:23;;;;;;;4.60;1.53;;;5.20;99.90;;;;;;5010848;28;20466;-69
2023/03/11 12:15:01;;;;;;;1.07;0.90;;;5.10;99.90;;;;;;5012319;28;20520;-69
2023/03/11 12:17:30;;;;;;;2.00;1.17;;;5.20;99.90;;;;;;5011667;28;20975;-69
2023/03/11 12:20:07;;;;;;;2.30;1.13;;;5.20;99.90;;;;;;5024898;28;20459;-70
2023/03/11 12:22:55;;;;;;;1.27;1.17;;;5.20;99.90;;;;;;5020552;28;20600;-69
2023/03/11 12:25:27;;;;;;;1.17;0.80;;;5.20;99.90;;;;;;5019189;28;20474;-69
2023/03/11 12:28:08;;;;;;;0.80;0.80;;;5.30;99.90;;;;;;5030424;28;20475;-68
2023/03/11 12:30:43;;;;;;;3.43;1.20;;;5.40;99.90;;;;;;5017458;28;20476;-69
2023/03/11 12:33:23;;;;;;;3.50;1.10;;;5.30;99.90;;;;;;5028643;28;20464;-67
2023/03/11 12:35:54;;;;;;;2.03;0.80;;;5.30;99.90;;;;;;5027650;28;20522;-68
2023/03/11 12:38:28;;;;;;;1.83;0.83;;;5.30;99.90;;;;;;5048308;28;20461;-69
2023/03/11 12:41:25;;;;;;;1.40;0.93;;;5.50;99.90;;;;;;5042860;28;20468;-69
2023/03/11 12:43:50;;;;;;;0.70;0.70;;;5.60;99.90;;;;;;5019096;28;20466;-69
2023/03/11 12:46:17;;;;;;;6.17;1.00;;;5.50;99.90;;;;;;5019895;28;21018;-69
2023/03/11 12:48:44;;;;;;;1.47;0.80;;;5.60;99.90;;;;;;5011223;28;20215;-68
2023/03/11 12:51:25;;;;;;;4.10;1.00;;;5.60;99.90;;;;;;5011058;28;21013;-68
2023/03/11 12:53:52;;;;;;;7.03;1.60;;;5.50;99.90;;;;;;5023205;28;20458;-69
2023/03/11 12:56:36;;;;;;;1.33;1.10;;;5.60;99.90;;;;;;5030202;28;20461;-69
2023/03/11 12:59:21;;;;;;;0.70;0.70;;;5.60;99.90;;;;;;5030080;28;20480;-69
2023/03/11 13:01:53;;;;;;;0.80;0.80;;;5.60;99.90;;;;;;5030206;28;20461;-70
2023/03/11 13:04:45;;;;;;;1.60;0.90;;;5.60;99.90;;;;;;5010821;28;20473;-69
2023/03/11 13:07:34;;;;;;;0.80;0.80;;;5.70;99.90;;;;;;5014500;28;20458;-69
2023/03/11 13:10:17;;;;;;;1.43;0.70;;;5.60;99.90;;;;;;5045583;28;20476;-68
2023/03/11 13:12:51;;;;;;;3.60;0.93;;;5.60;99.90;;;;;;5025983;28;20460;-67